Linder, Arkansas
Current Conditions -  °F | °C
As of 1:13 AM on Monday 24 Nov 2014 (Local Time) from KLRF Reporting Station
Broken Clouds Broken Clouds  
Wind Chill: 54°   Ceiling: 2900
Heat Index: 54°   Visibility: 10mi
Dew Point: 46°   Wind: 21mph
Humidity: 77%   Direction: 270°W
Pressure: 29.5"   Gusts: 31mph
Location:  35.2494°N, 92.313°W
Report Text: KLRF 240713Z AUTO 27018G27KT 10SM BKN029 12/08 A2950 RMK AO2 CIG 029V035
Loading
Personal Weather Stations






























Interactive Weather Map New forecast layout! Learn more

10-Day Weather Forecast

Advertisements
Track Severe Weather on mobile